Aeroporto :
LOGIN :

Iscrizione | Disclaimer

   EN    FR    IT 

 










Sommario :    VFR   VFR Marginale   IFR   IFR Intensivo   IFR Molto Intensivo
Visibilità : 
Base nubi : 
>= 8 km
>= 3000ft
5 / 8 km
1000 / 3000 ft
1500m / 5 km
500 / 1000 ft
800 / 1500m
200 / 500 ft
< 800m
< 200 ft
Simboli :   Temporali  Nebbia  Neve Forte  Precipitazioni Forti  Vento > 20 kt
SIGMETs :   Varie  Temporali  Ghiacco  Turbolenza  Onda orograficha  Ceneri Vulcaniche






- Altitudine del aeroporto : 1455 ft


ETIH - Hohenfels Army Air Field

ULTIMO METAR :
  • 240411Z AUTO 00000KT 5000 BR OVC003 03/02 A3036 RMK AO2 SLP300 $

METARs OBSOLETI :
  • 240356Z AUTO 00000KT 4400 BR OVC003 03/02 A3037 RMK AO2 SLP303 T00280019 $
  • 240351Z AUTO 00000KT 4400 BR OVC003 03/02 A3037 RMK AO2 SLP301 $
  • 240331Z AUTO 00000KT 6000 BR OVC003 03/02 A3036 RMK AO2 SLP298 $
  • 240316Z AUTO 00000KT 4400 BR OVC003 03/02 A3037 RMK AO2 VIS 4400V6000 SLP301 $
  • 240256Z AUTO 00000KT 6000 BR OVC003 03/02 A3038 RMK AO2 SLP305 T00270018 57014
  • 240211Z AUTO 12003KT 6000 BR OVC003 03/02 A3040 RMK AO2 SLP312 $
  • 240156Z AUTO 13003KT 3600 BR OVC003 03/02 A3040 RMK AO2 SLP312 T00280019 $
  • 240141Z AUTO 00000KT 3200 BR OVC002 03/02 A3040 RMK AO2 VIS 2200V3200 SLP312 $
  • 240131Z AUTO 00000KT 2000 BR OVC002 03/02 A3041 RMK AO2 SLP315 $
  • 240116Z AUTO 00000KT 1600 BR VV002 02/02 A3042 RMK AO2 SLP320 RVRNO $

Previsioni scadute.



MetMap, La meteo Aeronautica in un colpo d'occhio ! - Copyright ORBIFLY Dicembre 2007 - Disclaimer

ORBIFLY MET'MAP TEAM :

Programmazione e sviluppo : Alexandra Zaïnal
Concezione : Baudouin d'Aumeries
Aiuto per la programmazione : Marc-Olivier Méhu
Supporto tecnico e logistico : Manuel Goepfert
Aiuto per la traduzione : Arnaldo La Scala

Contatto : metmap@orbifly.com




FONTI E CREDITI :

   NOAA